Jump to content


SKYWEST AIRLINES FLIGHT OO3075 FLOWN ON 09-22-2017 BY CAPTAIN DEREK ROGY

Pilot StatsCaptain Derek Rogy (LDP86) • 1,488.7 total hours • 801 total flights [View Logbook]
FLIGHT DETAILS
StatusReceived and approved on 2017-09-22 at 12:09:13
Origin AirportWalker (KGJT) • Grand Junction, Colorado, United States (4,857 feet MSL)
Filed Flight PlanKGJT JNC J15 RSK J44 PXR J11 TUKEE KPHX
Destination AirportPhoenix Sky Harbor Intl (KPHX) • Phoenix, Arizona, United States (1,135 feet MSL)
Alternate AirportNone Filed
AirlineSkywest Airlines
AircraftBombardier CRJ-700 (CR7 / CRJ-700)
FS Aircraft UsedCRJ700ER American Eagle N508AE
Cruising AltitudeFL280
Distance Flown381 nautical miles
Passengers Onboard68 passengers (97.14% full)
DEPARTURE DETAILS
Time Out08:25:57
Taxi Data68,226 lbs total with 11,296 lbs of fuel onboard
Takeoff Data08:40:15 (14 minutes after leaving gate/ramp) • 68,814 lbs total • 7° pitch at 144 knots
Departure METARKGJT 221453Z 18010KT 10SM CLR 21/01 A2980 RMK AO2 SLP022 T02060006 53008
ARRIVAL DETAILS
Landing Data08:59:04 • 64,069 lbs total • 1° pitch doing 122 knots at a rate of -200.70 feet/minute with 6,182 lbs of fuel onboard
Time In09:00:50 (2 minutes after landing)
Ramp Weight64,036 lbs total
Total Fuel Used5,114 lbs
Total Block Time01:34:35 (1.6 hours) while 16 minutes were spent on the ground
Arrival METARKPHX 221551Z 00000KT 10SM FEW070 FEW160 SCT250 26/11 A2975 RMK AO2 SLP055 T02560106
MISCELLANEOUS DETAILS
LiveDISPATCH Version4.8.3.1
FS Version
FSUIPC Version4.95
OS VersionWindows 7 32-bit
Screen Resolution1920 x 1200
Pilot's CommentsKGJT JNC GUP EAGUL6 KPHX
FLIGHT MAP